createdAt,value
2022-11-27T00:01:15.370Z,3.72
2022-11-27T00:03:42.806Z,4.25
2022-11-27T00:06:17.764Z,4.60
2022-11-27T00:08:45.421Z,4.70
2022-11-27T00:11:17.860Z,4.25
2022-11-27T00:13:45.091Z,4.75
2022-11-27T00:16:12.959Z,4.40
2022-11-27T00:18:39.866Z,3.42
2022-11-27T00:21:08.641Z,3.40
2022-11-27T00:23:35.610Z,4.15
2022-11-27T00:26:03.043Z,3.30
2022-11-27T00:28:30.118Z,4.13
2022-11-27T00:31:05.371Z,4.32
2022-11-27T00:33:32.761Z,3.92
2022-11-27T00:36:07.125Z,4.43
2022-11-27T00:38:38.517Z,4.40
2022-11-27T00:41:11.178Z,4.25
2022-11-27T00:43:44.049Z,2.78
2022-11-27T00:46:12.641Z,3.45
2022-11-27T00:48:39.422Z,4.43
2022-11-27T00:51:08.849Z,4.00
2022-11-27T00:53:35.676Z,3.53
2022-11-27T00:56:02.632Z,3.85
2022-11-27T00:58:30.680Z,3.53
2022-11-27T01:00:59.109Z,3.85
2022-11-27T01:03:26.380Z,4.13
2022-11-27T01:05:53.529Z,3.97
2022-11-27T01:08:20.571Z,3.42
2022-11-27T01:10:56.584Z,3.72
2022-11-27T01:13:24.791Z,4.13
2022-11-27T01:16:03.093Z,4.30
2022-11-27T01:18:31.411Z,4.00
2022-11-27T01:20:58.238Z,3.47
2022-11-27T01:23:25.953Z,4.50
2022-11-27T01:25:55.512Z,3.97
2022-11-27T01:28:23.995Z,3.53
2022-11-27T01:30:51.430Z,3.67
2022-11-27T01:33:19.008Z,3.72
2022-11-27T01:35:56.859Z,4.13
2022-11-27T01:38:24.566Z,3.70
2022-11-27T01:41:22.051Z,4.38
2022-11-27T01:43:54.459Z,4.10
2022-11-27T01:46:37.417Z,3.38
2022-11-27T01:49:21.422Z,4.03
2022-11-27T01:52:28.096Z,4.35
2022-11-27T01:55:08.889Z,3.78
2022-11-27T01:57:43.391Z,3.97
2022-11-27T02:00:14.093Z,4.03
2022-11-27T02:02:42.111Z,4.53
2022-11-27T02:05:10.432Z,3.63
2022-11-27T02:07:37.237Z,3.90
2022-11-27T02:10:05.672Z,3.67
2022-11-27T02:12:50.778Z,3.80
2022-11-27T02:15:33.715Z,3.45
2022-11-27T02:18:15.832Z,3.88
2022-11-27T02:20:51.982Z,3.92
2022-11-27T02:23:52.955Z,3.47
2022-11-27T02:26:46.917Z,3.88
2022-11-27T02:29:15.408Z,3.05
2022-11-27T02:31:47.182Z,4.03
2022-11-27T02:34:20.352Z,4.28
2022-11-27T02:36:58.358Z,4.18
2022-11-27T02:39:32.677Z,4.40
2022-11-27T02:42:11.943Z,4.28
2022-11-27T02:44:45.307Z,3.28
2022-11-27T02:47:13.497Z,3.92
2022-11-27T02:49:43.169Z,3.88
2022-11-27T02:52:13.037Z,4.03
2022-11-27T02:54:42.232Z,3.05
2022-11-27T02:57:11.782Z,3.97
2022-11-27T02:59:41.920Z,3.90
2022-11-27T03:02:13.777Z,3.88
2022-11-27T03:04:49.055Z,3.53
2022-11-27T03:07:25.517Z,3.22
2022-11-27T03:09:57.073Z,3.92
2022-11-27T03:12:23.736Z,3.80
2022-11-27T03:14:50.310Z,3.50
2022-11-27T03:17:22.988Z,3.60
2022-11-27T03:20:18.495Z,3.75
2022-11-27T03:22:45.147Z,4.30
2022-11-27T03:25:12.038Z,3.45
2022-11-27T03:27:54.107Z,3.85
2022-11-27T03:30:20.761Z,3.30
2022-11-27T03:32:47.523Z,4.60
2022-11-27T03:35:18.666Z,3.72
2022-11-27T03:37:45.748Z,4.00
2022-11-27T03:40:13.350Z,4.13
2022-11-27T03:43:02.834Z,3.25
2022-11-27T03:45:41.563Z,3.70
2022-11-27T03:48:43.536Z,4.05
2022-11-27T03:51:10.058Z,4.35
2022-11-27T03:54:08.424Z,3.65
2022-11-27T03:56:49.107Z,3.95
2022-11-27T03:59:27.443Z,4.20
2022-11-27T04:01:54.157Z,3.60
2022-11-27T04:04:20.803Z,3.72
2022-11-27T04:06:47.545Z,4.30
2022-11-27T04:09:14.173Z,3.90
2022-11-27T04:11:40.723Z,3.65
2022-11-27T04:14:07.337Z,4.38
2022-11-27T04:16:33.881Z,4.20
2022-11-27T04:19:00.363Z,3.90
2022-11-27T04:21:26.980Z,3.00
2022-11-27T04:23:53.557Z,3.55
2022-11-27T04:26:22.774Z,3.70
2022-11-27T04:28:49.366Z,3.83
2022-11-27T04:31:16.158Z,3.50
2022-11-27T04:33:42.778Z,3.70
2022-11-27T04:36:09.428Z,3.00
2022-11-27T04:38:37.169Z,2.85
2022-11-27T04:41:03.819Z,3.83
2022-11-27T04:43:30.378Z,3.75
2022-11-27T04:45:56.981Z,2.83
2022-11-27T04:48:23.662Z,3.53
2022-11-27T04:50:50.268Z,3.20
2022-11-27T04:53:16.863Z,3.25
2022-11-27T04:55:43.479Z,3.40
2022-11-27T04:58:10.062Z,3.30
2022-11-27T05:00:36.714Z,3.00
2022-11-27T05:03:03.324Z,3.70
2022-11-27T05:05:29.945Z,3.60
2022-11-27T05:07:56.615Z,3.30
2022-11-27T05:10:23.286Z,2.67
2022-11-27T05:12:49.916Z,2.88
2022-11-27T05:15:16.550Z,3.75
2022-11-27T05:17:43.145Z,2.60
2022-11-27T05:20:10.544Z,3.35
2022-11-27T05:22:37.224Z,2.85
2022-11-27T05:25:04.110Z,3.00
2022-11-27T05:27:30.890Z,2.92
2022-11-27T05:29:57.516Z,2.40
2022-11-27T05:32:24.093Z,2.10
2022-11-27T05:34:50.832Z,3.15
2022-11-27T05:37:19.746Z,2.72
2022-11-27T05:39:46.967Z,2.85
2022-11-27T05:42:13.637Z,2.92
2022-11-27T05:44:40.615Z,2.63
2022-11-27T05:47:08.710Z,2.35
2022-11-27T05:49:35.473Z,2.78
2022-11-27T05:52:02.129Z,2.35
2022-11-27T05:54:28.857Z,2.47
2022-11-27T05:56:55.394Z,2.53
2022-11-27T05:59:21.975Z,2.80
2022-11-27T06:01:49.640Z,2.25
2022-11-27T06:04:16.650Z,2.78
2022-11-27T06:06:43.274Z,3.40
2022-11-27T06:09:13.282Z,2.78
2022-11-27T06:11:40.880Z,2.75
2022-11-27T06:14:09.001Z,2.25
2022-11-27T06:16:39.037Z,2.58
2022-11-27T06:19:05.630Z,2.75
2022-11-27T06:21:32.292Z,2.55
2022-11-27T06:23:59.238Z,2.88
2022-11-27T06:26:28.829Z,2.90
2022-11-27T06:28:56.485Z,2.65
2022-11-27T06:31:25.831Z,2.67
2022-11-27T06:33:54.206Z,3.00
2022-11-27T06:36:22.091Z,2.60
2022-11-27T06:38:48.684Z,2.97
2022-11-27T06:41:21.812Z,2.75
2022-11-27T06:43:48.582Z,3.70
2022-11-27T06:46:18.062Z,2.78
2022-11-27T06:48:46.557Z,2.63
2022-11-27T06:51:15.693Z,2.70
2022-11-27T06:53:42.636Z,2.72
2022-11-27T06:56:12.991Z,2.28
2022-11-27T06:58:39.947Z,3.17
2022-11-27T07:01:12.576Z,2.95
2022-11-27T07:03:39.481Z,2.83
2022-11-27T07:06:11.872Z,2.00
2022-11-27T07:08:38.693Z,2.47
2022-11-27T07:11:18.295Z,2.70
2022-11-27T07:13:46.229Z,2.33
2022-11-27T07:16:13.749Z,2.33
2022-11-27T07:18:43.319Z,2.35
2022-11-27T07:21:10.421Z,2.47
2022-11-27T07:23:37.760Z,2.70
2022-11-27T07:26:09.416Z,2.28
2022-11-27T07:28:36.655Z,2.75
2022-11-27T07:31:03.907Z,2.35
2022-11-27T07:33:31.170Z,2.40
2022-11-27T07:36:00.886Z,2.10
2022-11-27T07:38:27.507Z,2.53
2022-11-27T07:40:54.134Z,2.53
2022-11-27T07:43:21.226Z,2.30
2022-11-27T07:45:47.882Z,1.90
2022-11-27T07:48:14.521Z,2.38
2022-11-27T07:50:41.352Z,2.45
2022-11-27T07:53:07.913Z,2.22
2022-11-27T07:55:34.445Z,2.85
2022-11-27T07:58:00.970Z,2.53
2022-11-27T08:00:27.564Z,2.05
2022-11-27T08:02:54.017Z,2.70
2022-11-27T08:05:20.686Z,2.92
2022-11-27T08:07:48.900Z,2.55
2022-11-27T08:10:15.607Z,2.67
2022-11-27T08:12:42.147Z,2.58
2022-11-27T08:15:09.873Z,2.65
2022-11-27T08:17:36.570Z,3.08
2022-11-27T08:20:04.158Z,2.42
2022-11-27T08:22:30.761Z,2.63
2022-11-27T08:24:57.280Z,3.10
2022-11-27T08:27:24.096Z,2.55
2022-11-27T08:29:50.588Z,2.92
2022-11-27T08:32:17.176Z,2.97
2022-11-27T08:34:43.871Z,2.50
2022-11-27T08:37:11.527Z,2.63
2022-11-27T08:39:38.116Z,3.22
2022-11-27T08:42:04.654Z,2.78
2022-11-27T08:44:31.214Z,2.80
2022-11-27T08:46:57.975Z,3.33
2022-11-27T08:49:24.556Z,2.92
2022-11-27T08:51:52.142Z,2.90
2022-11-27T08:54:18.579Z,3.28
2022-11-27T08:56:45.160Z,3.15
2022-11-27T08:59:11.697Z,2.83
2022-11-27T09:01:38.669Z,3.05
2022-11-27T09:04:05.647Z,2.75
2022-11-27T09:06:34.953Z,2.85
2022-11-27T09:09:04.392Z,3.20
2022-11-27T09:11:33.185Z,3.42
2022-11-27T09:14:00.843Z,2.28
2022-11-27T09:16:29.196Z,3.10
2022-11-27T09:18:56.678Z,3.28
2022-11-27T09:21:29.400Z,3.30
2022-11-27T09:24:02.256Z,4.28
2022-11-27T09:26:29.762Z,4.45
2022-11-27T09:28:58.350Z,4.05
2022-11-27T09:31:26.042Z,3.17
2022-11-27T09:33:53.025Z,3.08
2022-11-27T09:36:23.054Z,3.60
2022-11-27T09:38:50.336Z,4.20
2022-11-27T09:41:19.762Z,4.10
2022-11-27T09:44:01.217Z,3.60
2022-11-27T09:46:35.941Z,3.78
2022-11-27T09:49:07.424Z,3.72
2022-11-27T09:51:42.894Z,3.53
2022-11-27T09:54:42.102Z,3.88
2022-11-27T09:57:15.725Z,3.97
2022-11-27T09:59:51.624Z,3.90
2022-11-27T10:02:26.441Z,4.13
2022-11-27T10:07:45.722Z,3.63
2022-11-27T10:10:30.043Z,4.05
2022-11-27T10:13:31.874Z,3.75
2022-11-27T10:16:08.201Z,2.92
2022-11-27T10:18:44.059Z,3.85
2022-11-27T10:21:28.852Z,4.13
2022-11-27T10:24:21.024Z,4.25
2022-11-27T10:26:50.099Z,4.28
2022-11-27T10:29:17.695Z,4.45
2022-11-27T10:31:54.187Z,4.30
2022-11-27T10:34:48.726Z,5.05
2022-11-27T10:37:25.869Z,5.28
2022-11-27T10:40:01.445Z,5.15
2022-11-27T10:42:35.148Z,4.45
2022-11-27T10:45:21.873Z,5.10
2022-11-27T10:47:48.538Z,4.85
2022-11-27T10:50:19.192Z,4.90
2022-11-27T10:53:00.837Z,5.05
2022-11-27T10:55:40.731Z,4.80
2022-11-27T10:58:24.201Z,5.10
2022-11-27T11:03:28.114Z,4.07
2022-11-27T11:06:19.193Z,4.47
2022-11-27T11:08:45.087Z,4.72
2022-11-27T11:11:11.665Z,4.57
2022-11-27T11:13:40.960Z,4.30
2022-11-27T11:16:23.363Z,4.63
2022-11-27T11:21:42.526Z,4.30
2022-11-27T11:24:19.197Z,4.72
2022-11-27T11:26:55.666Z,4.32
2022-11-27T11:29:42.311Z,4.75
2022-11-27T11:32:21.124Z,4.40
2022-11-27T11:35:00.411Z,4.22
2022-11-27T11:37:31.148Z,4.40
2022-11-27T11:40:05.544Z,4.80
2022-11-27T11:42:34.452Z,5.40
2022-11-27T11:45:13.393Z,5.55
2022-11-27T11:47:54.216Z,5.25
2022-11-27T11:50:37.090Z,4.85
2022-11-27T11:53:25.649Z,4.00
2022-11-27T11:56:26.512Z,4.05
2022-11-27T11:59:26.205Z,4.22
2022-11-27T12:02:20.805Z,4.88
2022-11-27T12:05:15.506Z,4.20
2022-11-27T12:08:02.270Z,4.60
2022-11-27T12:10:55.079Z,4.68
2022-11-27T12:13:33.705Z,5.03
2022-11-27T12:16:25.516Z,4.72
2022-11-27T12:19:31.858Z,4.88
2022-11-27T12:22:18.954Z,4.63
2022-11-27T12:24:51.408Z,3.95
2022-11-27T12:27:53.177Z,5.43
2022-11-27T12:30:39.672Z,5.18
2022-11-27T12:33:35.757Z,4.75
2022-11-27T12:36:26.324Z,3.97
2022-11-27T12:39:08.017Z,4.32
2022-11-27T12:41:53.091Z,4.82
2022-11-27T12:44:30.615Z,4.53
2022-11-27T12:47:11.898Z,4.93
2022-11-27T12:49:45.069Z,4.82
2022-11-27T12:52:21.103Z,4.53
2022-11-27T12:54:47.518Z,4.72
2022-11-27T12:57:20.235Z,6.05
2022-11-27T12:59:53.941Z,6.43
2022-11-27T13:02:39.142Z,4.55
2022-11-27T13:05:11.997Z,4.63
2022-11-27T13:07:51.463Z,4.15
2022-11-27T13:10:36.056Z,4.57
2022-11-27T13:13:17.730Z,4.30
2022-11-27T13:16:07.675Z,5.13
2022-11-27T13:18:44.143Z,5.00
2022-11-27T13:21:20.302Z,5.10
2022-11-27T13:23:46.840Z,5.50
2022-11-27T13:26:24.757Z,4.35
2022-11-27T13:29:00.708Z,5.25
2022-11-27T13:31:37.732Z,5.10
2022-11-27T13:36:40.555Z,5.18
2022-11-27T13:39:21.109Z,6.07
2022-11-27T13:41:48.767Z,5.30
2022-11-27T13:44:29.647Z,4.95
2022-11-27T13:47:05.989Z,4.65
2022-11-27T13:49:36.193Z,5.35
2022-11-27T13:52:11.809Z,4.80
2022-11-27T13:54:39.199Z,4.70
2022-11-27T13:57:14.892Z,6.10
2022-11-27T13:59:41.533Z,5.57
2022-11-27T14:02:08.662Z,5.25
2022-11-27T14:04:50.598Z,6.80
2022-11-27T14:07:21.569Z,5.50
2022-11-27T14:09:52.997Z,5.60
2022-11-27T14:12:30.775Z,5.45
2022-11-27T14:15:20.364Z,5.30
2022-11-27T14:17:52.080Z,5.40
2022-11-27T14:20:18.517Z,5.65
2022-11-27T14:23:11.294Z,6.07
2022-11-27T14:25:38.003Z,4.95
2022-11-27T14:28:26.221Z,4.55
2022-11-27T14:30:54.269Z,5.45
2022-11-27T14:33:23.483Z,5.82
2022-11-27T14:35:53.023Z,6.57
2022-11-27T14:38:20.100Z,6.22
2022-11-27T14:40:47.030Z,5.68
2022-11-27T14:43:23.795Z,5.55
2022-11-27T14:46:01.917Z,5.00
2022-11-27T14:48:42.500Z,6.13
2022-11-27T14:51:16.118Z,6.00
2022-11-27T14:53:43.272Z,5.10
2022-11-27T14:56:10.424Z,5.55
2022-11-27T14:58:39.088Z,5.55
2022-11-27T15:01:08.078Z,5.97
2022-11-27T15:03:34.885Z,6.45
2022-11-27T15:06:04.309Z,6.32
2022-11-27T15:08:35.099Z,6.85
2022-11-27T15:11:03.835Z,6.72
2022-11-27T15:13:33.890Z,6.55
2022-11-27T15:16:18.358Z,5.75
2022-11-27T15:18:51.572Z,4.40
2022-11-27T15:21:21.430Z,6.15
2022-11-27T15:23:49.915Z,6.80
2022-11-27T15:26:42.485Z,6.35
2022-11-27T15:29:41.192Z,6.22
2022-11-27T15:32:23.432Z,6.05
2022-11-27T15:34:52.001Z,5.78
2022-11-27T15:37:35.088Z,6.75
2022-11-27T15:40:01.998Z,5.32
2022-11-27T15:42:28.876Z,5.47
2022-11-27T15:44:57.321Z,5.25
2022-11-27T15:47:37.788Z,5.57
2022-11-27T15:50:05.560Z,5.20
2022-11-27T15:52:33.143Z,5.32
2022-11-27T15:54:59.693Z,5.28
2022-11-27T15:57:26.484Z,5.10
2022-11-27T15:59:53.035Z,5.10
2022-11-27T16:02:19.632Z,5.85
2022-11-27T16:04:46.239Z,6.00
2022-11-27T16:07:12.943Z,5.03
2022-11-27T16:09:39.920Z,5.90
2022-11-27T16:12:06.986Z,5.45
2022-11-27T16:14:33.605Z,4.95
2022-11-27T16:17:01.421Z,6.15
2022-11-27T16:19:30.585Z,6.97
2022-11-27T16:21:58.210Z,8.15
2022-11-27T16:24:24.705Z,6.22
2022-11-27T16:26:51.225Z,5.53
2022-11-27T16:29:17.871Z,5.22
2022-11-27T16:31:44.414Z,4.82
2022-11-27T16:34:10.965Z,6.45
2022-11-27T16:36:43.213Z,4.90
2022-11-27T16:39:10.763Z,6.07
2022-11-27T16:41:37.241Z,5.75
2022-11-27T16:44:10.219Z,4.85
2022-11-27T16:46:38.873Z,6.47
2022-11-27T16:49:08.198Z,5.03
2022-11-27T16:51:37.827Z,5.68
2022-11-27T16:54:07.584Z,7.35
2022-11-27T16:56:35.223Z,5.78
2022-11-27T16:59:03.297Z,5.57
2022-11-27T17:01:36.155Z,6.25
2022-11-27T17:04:09.126Z,6.53
2022-11-27T17:06:38.133Z,5.68
2022-11-27T17:09:06.805Z,5.35
2022-11-27T17:11:35.812Z,5.60
2022-11-27T17:14:06.287Z,6.03
2022-11-27T17:16:33.585Z,4.70
2022-11-27T17:19:00.278Z,5.28
2022-11-27T17:21:29.619Z,5.22
2022-11-27T17:24:00.464Z,5.03
2022-11-27T17:26:31.683Z,4.38
2022-11-27T17:28:59.523Z,5.22
2022-11-27T17:31:36.946Z,5.82
2022-11-27T17:34:07.452Z,4.90
2022-11-27T17:36:37.221Z,5.90
2022-11-27T17:39:05.937Z,5.47
2022-11-27T17:41:32.850Z,5.50
2022-11-27T17:43:59.526Z,5.60
2022-11-27T17:46:28.712Z,5.63
2022-11-27T17:48:58.008Z,4.93
2022-11-27T17:51:24.890Z,6.88
2022-11-27T17:53:51.468Z,5.85
2022-11-27T17:56:20.575Z,5.22
2022-11-27T17:58:47.842Z,5.47
2022-11-27T18:01:17.150Z,6.03
2022-11-27T18:03:45.969Z,5.88
2022-11-27T18:06:13.218Z,6.82
2022-11-27T18:08:40.271Z,6.35
2022-11-27T18:11:09.267Z,6.38
2022-11-27T18:13:35.986Z,5.35
2022-11-27T18:16:19.867Z,4.72
2022-11-27T18:18:47.369Z,5.28
2022-11-27T18:21:18.462Z,5.80
2022-11-27T18:24:20.843Z,4.38
2022-11-27T18:27:00.616Z,4.90
2022-11-27T18:29:21.092Z,4.88
2022-11-27T18:31:47.698Z,4.85
2022-11-27T18:34:14.221Z,4.65
2022-11-27T18:36:40.663Z,6.38
2022-11-27T18:39:07.129Z,6.05
2022-11-27T18:41:34.733Z,6.25
2022-11-27T18:44:01.301Z,6.45
2022-11-27T18:46:28.137Z,5.60
2022-11-27T18:48:54.630Z,5.68
2022-11-27T18:51:23.284Z,7.68
2022-11-27T18:53:52.274Z,5.50
2022-11-27T18:56:21.570Z,5.45
2022-11-27T18:58:48.848Z,6.22
2022-11-27T19:01:18.613Z,6.55
2022-11-27T19:03:45.478Z,7.55
2022-11-27T19:06:14.296Z,8.02
2022-11-27T19:08:41.535Z,6.43
2022-11-27T19:11:10.307Z,6.50
2022-11-27T19:13:37.460Z,6.53
2022-11-27T19:16:08.795Z,5.80
2022-11-27T19:18:36.987Z,5.88
2022-11-27T19:21:14.715Z,4.75
2022-11-27T19:23:41.714Z,5.43
2022-11-27T19:26:16.859Z,5.75
2022-11-27T19:28:45.333Z,5.22
2022-11-27T19:31:13.367Z,4.78
2022-11-27T19:33:43.088Z,5.63
2022-11-27T19:36:14.158Z,5.97
2022-11-27T19:38:42.757Z,5.90
2022-11-27T19:41:10.637Z,4.97
2022-11-27T19:43:37.196Z,5.13
2022-11-27T19:46:34.719Z,5.57
2022-11-27T19:49:18.325Z,6.03
2022-11-27T19:51:45.000Z,5.20
2022-11-27T19:54:13.473Z,5.22
2022-11-27T19:56:42.279Z,5.97
2022-11-27T19:59:12.554Z,6.20
2022-11-27T20:01:40.260Z,5.47
2022-11-27T20:04:07.717Z,4.88
2022-11-27T20:06:34.620Z,4.28
2022-11-27T20:09:04.064Z,5.38
2022-11-27T20:11:34.960Z,5.38
2022-11-27T20:14:04.121Z,5.75
2022-11-27T20:16:31.599Z,5.20
2022-11-27T20:18:58.078Z,4.25
2022-11-27T20:21:25.943Z,5.40
2022-11-27T20:23:53.649Z,4.20
2022-11-27T20:26:25.992Z,5.57
2022-11-27T20:28:53.188Z,4.90
2022-11-27T20:31:23.869Z,4.90
2022-11-27T20:33:51.608Z,5.40
2022-11-27T20:36:19.744Z,5.38
2022-11-27T20:38:46.761Z,5.38
2022-11-27T20:41:17.444Z,5.07
2022-11-27T20:43:44.465Z,5.72
2022-11-27T20:46:15.996Z,5.47
2022-11-27T20:48:46.291Z,5.68
2022-11-27T20:51:15.917Z,6.28
2022-11-27T20:53:43.792Z,6.38
2022-11-27T20:56:11.894Z,5.32
2022-11-27T20:58:40.505Z,5.43
2022-11-27T21:01:21.706Z,5.13
2022-11-27T21:03:49.799Z,6.05
2022-11-27T21:06:18.400Z,5.18
2022-11-27T21:08:45.712Z,4.65
2022-11-27T21:11:15.321Z,5.30
2022-11-27T21:13:42.969Z,6.53
2022-11-27T21:16:11.161Z,6.10
2022-11-27T21:18:38.332Z,5.70
2022-11-27T21:21:11.396Z,5.60
2022-11-27T21:23:42.234Z,5.75
2022-11-27T21:26:09.791Z,5.75
2022-11-27T21:28:36.726Z,6.00
2022-11-27T21:31:08.849Z,5.05
2022-11-27T21:33:36.199Z,4.18
2022-11-27T21:36:03.778Z,4.88
2022-11-27T21:38:30.401Z,5.07
2022-11-27T21:40:56.939Z,4.72
2022-11-27T21:43:23.368Z,5.13
2022-11-27T21:45:50.347Z,6.22
2022-11-27T21:48:16.989Z,5.70
2022-11-27T21:50:43.406Z,5.60
2022-11-27T21:53:09.914Z,5.18
2022-11-27T21:55:40.824Z,5.72
2022-11-27T22:00:34.509Z,4.80
2022-11-27T22:03:00.977Z,5.18
2022-11-27T22:05:27.659Z,5.80
2022-11-27T22:07:54.266Z,5.30
2022-11-27T22:10:20.754Z,4.68
2022-11-27T22:12:47.218Z,4.47
2022-11-27T22:15:13.665Z,5.32
2022-11-27T22:17:40.295Z,5.45
2022-11-27T22:20:07.347Z,4.47
2022-11-27T22:22:33.805Z,5.53
2022-11-27T22:25:00.442Z,5.15
2022-11-27T22:27:27.011Z,5.47
2022-11-27T22:29:53.476Z,4.72
2022-11-27T22:32:19.915Z,4.60
2022-11-27T22:34:46.417Z,5.03
2022-11-27T22:37:12.908Z,4.80
2022-11-27T22:39:39.389Z,5.35
2022-11-27T22:42:05.885Z,5.10
2022-11-27T22:44:32.313Z,5.15
2022-11-27T22:46:58.759Z,5.00
2022-11-27T22:49:25.179Z,5.20
2022-11-27T22:51:51.661Z,4.85
2022-11-27T22:54:18.219Z,4.50
2022-11-27T22:56:48.066Z,4.82
2022-11-27T22:59:32.739Z,4.75
2022-11-27T23:02:03.197Z,5.10
2022-11-27T23:04:29.839Z,5.25
2022-11-27T23:06:56.409Z,4.97
2022-11-27T23:09:22.846Z,5.60
2022-11-27T23:11:49.557Z,5.47
2022-11-27T23:14:16.592Z,5.38
2022-11-27T23:16:43.192Z,5.80
2022-11-27T23:19:10.601Z,5.93
2022-11-27T23:21:38.744Z,5.47
2022-11-27T23:24:07.343Z,5.43
2022-11-27T23:26:33.935Z,5.20
2022-11-27T23:29:00.478Z,5.20
2022-11-27T23:31:31.241Z,5.55
2022-11-27T23:34:01.816Z,4.88
2022-11-27T23:36:29.445Z,5.45
2022-11-27T23:38:56.329Z,6.07
2022-11-27T23:41:25.013Z,5.65
2022-11-27T23:43:53.190Z,5.32
2022-11-27T23:46:22.141Z,5.57
2022-11-27T23:48:49.036Z,5.50
2022-11-27T23:51:21.150Z,5.45
2022-11-27T23:53:48.258Z,5.50
2022-11-27T23:56:18.727Z,5.68
2022-11-27T23:58:47.302Z,5.93
